Time;durP1;ratioP1;P1;durP2;ratioP2;P2;SDS_P1;SDS_P2;PMS_P1;PMS_P2;Temp;Humidity;BMP_temperature;BMP_pressure;BME280_temperature;BME280_humidity;BME280_pressure;Samples;Min_cycle;Max_cycle;Signal;HPM_P1;HPM_P2
2021/09/17 00:00:09;;;;;;;1.35;1.35;;;;;;;7.26;73.25;100355.53;5070866;28;20048;-74
2021/09/17 00:02:58;;;;;;;1.23;1.23;;;;;;;7.25;73.66;100353.84;5070827;28;20419;-73
2021/09/17 00:05:45;;;;;;;0.80;0.80;;;;;;;7.22;73.96;100353.09;5070452;28;20471;-74
2021/09/17 00:08:30;;;;;;;1.67;1.67;;;;;;;7.21;74.38;100356.56;5070927;28;20045;-74
2021/09/17 00:11:16;;;;;;;1.10;1.10;;;;;;;7.18;74.82;100352.34;5055687;28;20056;-73
2021/09/17 00:14:02;;;;;;;1.75;1.65;;;;;;;7.18;74.43;100347.16;5068946;28;20052;-78
2021/09/17 00:19:31;;;;;;;0.65;0.65;;;;;;;7.18;75.02;100354.94;5049790;28;20453;-72
2021/09/17 00:21:57;;;;;;;3.53;1.05;;;;;;;7.14;75.73;100349.88;5046042;28;20443;-74
2021/09/17 00:24:22;;;;;;;1.08;1.08;;;;;;;7.00;76.59;100347.72;5050492;28;20053;-72
2021/09/17 00:26:49;;;;;;;1.15;1.15;;;;;;;7.06;75.38;100351.91;5050759;28;20456;-73
2021/09/17 00:29:15;;;;;;;1.10;1.10;;;;;;;7.04;75.61;100348.50;5050746;28;20500;-73
2021/09/17 00:31:41;;;;;;;1.40;1.40;;;;;;;7.01;76.16;100356.38;5049933;28;20053;-74
2021/09/17 00:34:07;;;;;;;0.82;0.82;;;;;;;6.98;76.57;100351.28;5050098;28;20144;-73
2021/09/17 00:36:53;;;;;;;2.97;2.67;;;;;;;6.95;76.53;100348.78;5050026;28;20041;-74
2021/09/17 00:39:39;;;;;;;1.10;1.10;;;;;;;6.90;76.57;100354.16;5050222;28;20048;-74
2021/09/17 00:42:25;;;;;;;10.15;1.98;;;;;;;6.82;76.21;100349.19;5050073;28;20558;-75
2021/09/17 00:45:11;;;;;;;5.18;0.93;;;;;;;6.81;76.45;100342.28;5035315;28;20049;-74
2021/09/17 00:47:57;;;;;;;0.98;0.98;;;;;;;6.82;76.57;100344.00;5049621;28;20045;-73
2021/09/17 00:50:43;;;;;;;1.58;1.58;;;;;;;6.75;76.30;100346.81;5049491;28;20148;-74
2021/09/17 00:53:33;;;;;;;1.20;1.20;;;;;;;6.73;76.21;100348.63;5049764;28;20080;-74
2021/09/17 00:56:19;;;;;;;1.23;1.23;;;;;;;6.71;74.60;100345.22;5049751;28;20056;-73
2021/09/17 00:59:05;;;;;;;2.78;1.30;;;;;;;6.72;74.97;100345.19;5048585;28;20048;-73
2021/09/17 01:01:51;;;;;;;1.27;1.20;;;;;;;6.70;73.72;100333.16;5062215;28;20045;-73
2021/09/17 01:04:37;;;;;;;2.15;2.05;;;;;;;6.70;73.47;100343.53;5049662;28;20084;-73
2021/09/17 01:07:23;;;;;;;0.80;0.80;;;;;;;6.67;72.78;100339.31;5049494;28;20495;-73
2021/09/17 01:10:09;;;;;;;1.65;1.58;;;;;;;6.67;72.93;100335.84;5049563;28;20084;-75
2021/09/17 01:12:54;;;;;;;0.98;0.98;;;;;;;6.67;73.12;100336.72;5049186;28;20049;-75
2021/09/17 01:15:40;;;;;;;0.80;0.80;;;;;;;6.70;72.43;100343.53;5048481;28;20065;-74
2021/09/17 01:18:27;;;;;;;1.90;1.80;;;;;;;6.68;72.77;100340.13;5049454;28;20059;-75
2021/09/17 01:21:13;;;;;;;0.73;0.73;;;;;;;6.69;72.44;100340.09;5020605;28;20151;-74
2021/09/17 01:23:58;;;;;;;1.10;1.10;;;;;;;6.69;72.96;100342.69;5049223;28;20048;-75
2021/09/17 01:26:44;;;;;;;1.05;1.05;;;;;;;6.56;73.02;100324.94;5048074;28;20440;-75
2021/09/17 01:29:30;;;;;;;0.88;0.88;;;;;;;6.65;73.04;100332.44;5048185;28;20440;-74
2021/09/17 01:32:16;;;;;;;2.65;1.23;;;;;;;6.66;72.78;100336.75;5049462;28;20063;-74
2021/09/17 01:35:04;;;;;;;0.88;0.88;;;;;;;6.61;73.45;100336.88;5049023;28;20287;-74
2021/09/17 01:37:50;;;;;;;1.05;1.05;;;;;;;6.58;73.64;100333.53;5048808;28;20144;-74
2021/09/17 01:40:36;;;;;;;2.17;2.08;;;;;;;6.54;73.73;100329.34;5049245;28;20088;-73
2021/09/17 01:43:22;;;;;;;0.80;0.80;;;;;;;6.54;73.54;100337.13;5048163;28;20049;-73
2021/09/17 01:46:08;;;;;;;1.83;1.73;;;;;;;6.49;73.52;100324.28;5048936;28;20147;-72
2021/09/17 01:48:54;;;;;;;2.97;1.83;;;;;;;6.52;73.93;100333.72;5048958;28;20056;-75
2021/09/17 01:51:40;;;;;;;1.80;1.70;;;;;;;6.50;73.59;100325.16;5050745;28;20072;-74
2021/09/17 01:54:26;;;;;;;1.33;1.33;;;;;;;6.50;73.70;100327.75;5054201;28;20092;-74
2021/09/17 01:57:12;;;;;;;1.80;1.70;;;;;;;6.46;74.12;100329.56;5053589;28;20049;-73
2021/09/17 01:59:57;;;;;;;1.50;1.45;;;;;;;6.45;74.58;100329.59;5049042;28;20055;-74
2021/09/17 02:02:43;;;;;;;1.42;1.42;;;;;;;6.40;74.85;100328.91;5052757;28;20517;-74
2021/09/17 02:05:29;;;;;;;1.02;1.02;;;;;;;6.36;74.97;100329.88;5053237;28;20479;-72
2021/09/17 02:08:15;;;;;;;1.55;1.45;;;;;;;6.37;75.45;100331.59;5051860;28;20049;-74
2021/09/17 02:11:01;;;;;;;1.25;1.25;;;;;;;6.38;75.41;100336.72;5065616;28;20052;-73
2021/09/17 02:13:47;;;;;;;1.70;1.60;;;;;;;6.37;75.47;100326.41;5051410;28;20076;-73
2021/09/17 02:16:33;;;;;;;1.30;1.30;;;;;;;6.38;75.59;100333.31;5052630;28;20524;-72
2021/09/17 02:19:18;;;;;;;2.05;1.95;;;;;;;6.37;76.07;100331.59;5037723;28;20052;-72
2021/09/17 02:22:04;;;;;;;1.73;1.70;;;;;;;6.32;76.19;100328.28;5052108;28;20420;-73
2021/09/17 02:24:50;;;;;;;1.65;1.55;;;;;;;6.32;76.53;100329.13;5052254;28;20044;-74
2021/09/17 02:27:36;;;;;;;1.30;1.30;;;;;;;6.31;76.25;100339.56;5052703;28;20235;-74
2021/09/17 02:30:22;;;;;;;1.30;1.30;;;;;;;6.29;76.63;100335.25;5052521;28;20207;-73
2021/09/17 02:33:08;;;;;;;1.52;1.48;;;;;;;6.24;76.68;100324.19;5052104;28;20041;-72
2021/09/17 02:35:53;;;;;;;2.65;2.00;;;;;;;6.27;76.88;100337.06;5037271;28;20127;-73
2021/09/17 02:38:39;;;;;;;0.98;0.98;;;;;;;6.28;77.30;100336.16;5052590;28;20118;-73
2021/09/17 02:41:25;;;;;;;1.77;1.75;;;;;;;6.26;77.03;100335.34;5054442;28;20083;-73
2021/09/17 02:44:11;;;;;;;1.02;1.02;;;;;;;6.26;77.66;100343.13;5025470;28;20084;-72
2021/09/17 02:46:58;;;;;;;2.05;1.95;;;;;;;6.28;77.67;100346.53;5037678;28;20478;-73
2021/09/17 02:49:43;;;;;;;1.73;1.63;;;;;;;6.31;77.59;100345.59;5037314;28;20103;-73
2021/09/17 02:52:29;;;;;;;7.57;2.05;;;;;;;6.34;77.05;100342.06;5051701;28;20052;-73
2021/09/17 02:55:15;;;;;;;5.93;2.28;;;;;;;6.32;77.37;100346.44;5037943;28;20068;-74
2021/09/17 02:58:05;;;;;;;2.13;1.95;;;;;;;6.33;77.84;100342.94;5051820;28;20052;-73
2021/09/17 03:00:51;;;;;;;2.13;2.03;;;;;;;6.32;77.64;100349.03;5051695;28;20134;-73
2021/09/17 03:03:36;;;;;;;2.88;2.72;;;;;;;6.31;77.46;100350.78;5051900;28;20420;-72
2021/09/17 03:06:25;;;;;;;1.77;1.67;;;;;;;6.30;77.33;100359.44;5051937;28;20044;-73
2021/09/17 03:09:11;;;;;;;1.70;1.65;;;;;;;6.33;77.73;100355.91;5051607;28;20059;-73
2021/09/17 03:11:57;;;;;;;1.98;1.88;;;;;;;6.31;77.36;100350.78;5050976;28;20436;-73
2021/09/17 03:14:42;;;;;;;2.65;2.45;;;;;;;6.33;77.46;100356.78;5051682;28;20053;-73
2021/09/17 03:17:29;;;;;;;3.03;2.83;;;;;;;6.28;77.98;100346.53;5037116;28;20048;-74
2021/09/17 03:20:15;;;;;;;2.78;2.67;;;;;;;6.36;77.62;100353.22;5051512;28;20056;-73
2021/09/17 03:23:01;;;;;;;1.63;1.63;;;;;;;6.36;78.07;100354.09;5051172;28;20128;-75
2021/09/17 03:25:47;;;;;;;1.95;1.85;;;;;;;6.42;77.88;100350.44;5051577;28;20075;-74
2021/09/17 03:28:33;;;;;;;2.15;2.05;;;;;;;6.42;77.95;100355.63;5036718;28;20144;-72
2021/09/17 03:31:19;;;;;;;2.33;2.13;;;;;;;6.46;77.28;100355.50;5051690;28;20543;-73
2021/09/17 03:34:04;;;;;;;2.20;2.10;;;;;;;6.46;77.79;100350.31;5051149;28;20056;-73
2021/09/17 03:36:50;;;;;;;1.48;1.48;;;;;;;6.44;77.63;100353.88;5036081;28;20049;-74
2021/09/17 03:39:36;;;;;;;1.73;1.65;;;;;;;6.43;76.40;100346.97;5051481;28;20044;-73
2021/09/17 03:42:22;;;;;;;2.22;2.13;;;;;;;6.47;76.55;100356.38;5036284;28;20144;-73
2021/09/17 03:45:08;;;;;;;1.75;1.65;;;;;;;6.48;76.13;100356.31;5035988;28;20512;-74
2021/09/17 03:47:54;;;;;;;3.75;2.72;;;;;;;6.46;76.51;100347.72;5050546;28;20041;-72
2021/09/17 03:50:20;;;;;;;3.08;2.85;;;;;;;6.46;75.88;100349.47;5049794;28;20048;-75
2021/09/17 03:52:46;;;;;;;1.70;1.70;;;;;;;6.48;75.53;100347.69;5051074;28;20052;-74
2021/09/17 03:55:12;;;;;;;13.35;2.47;;;;;;;6.49;75.92;100351.97;5050585;28;20056;-72
2021/09/17 03:58:01;;;;;;;8.50;2.10;;;;;;;6.50;75.62;100346.75;5052836;28;20041;-75
2021/09/17 04:00:47;;;;;;;2.55;2.40;;;;;;;6.50;76.24;100351.09;5050624;28;20547;-73
2021/09/17 04:03:32;;;;;;;3.30;3.10;;;;;;;6.45;75.16;100347.75;5050801;28;20428;-73
2021/09/17 04:06:18;;;;;;;3.08;2.55;;;;;;;6.50;75.00;100353.69;5063704;28;20136;-73
2021/09/17 04:09:17;;;;;;;1.75;1.70;;;;;;;6.48;75.35;100352.88;5050355;28;20098;-73
2021/09/17 04:12:34;;;;;;;5.03;4.63;;;;;;;6.48;75.54;100348.53;5050812;28;20079;-73
2021/09/17 04:15:20;;;;;;;2.65;2.38;;;;;;;6.45;73.99;100350.34;5042008;28;20063;-73
2021/09/17 04:18:05;;;;;;;5.00;2.80;;;;;;;6.52;75.52;100349.28;5046853;28;20135;-73
2021/09/17 04:20:51;;;;;;;1.67;1.60;;;;;;;6.59;74.75;100346.47;5049840;28;20508;-75
2021/09/17 04:23:37;;;;;;;1.92;1.83;;;;;;;6.66;74.45;100352.31;5049704;28;20582;-74
2021/09/17 04:26:23;;;;;;;1.55;1.55;;;;;;;6.71;73.75;100361.63;5050182;28;20053;-74
2021/09/17 04:29:08;;;;;;;2.28;2.08;;;;;;;6.69;71.54;100362.59;5049937;28;20057;-73
2021/09/17 04:31:54;;;;;;;1.35;1.27;;;;;;;6.84;72.28;100362.09;5049931;28;20135;-75
2021/09/17 04:34:40;;;;;;;2.83;2.65;;;;;;;6.83;72.77;100360.44;5049168;28;20048;-75
2021/09/17 04:37:26;;;;;;;1.48;1.48;;;;;;;6.78;71.18;100367.50;5050212;28;20487;-74
2021/09/17 04:40:13;;;;;;;2.45;2.25;;;;;;;6.85;72.11;100371.59;5049347;28;20052;-76
2021/09/17 04:42:59;;;;;;;2.47;2.38;;;;;;;6.92;70.70;100370.50;5048916;28;20045;-75
2021/09/17 04:45:45;;;;;;;2.58;1.70;;;;;;;6.78;69.99;100359.69;5049435;28;20080;-74
2021/09/17 04:48:31;;;;;;;1.38;1.38;;;;;;;6.86;71.05;100370.72;5048909;28;20428;-75
2021/09/17 04:51:17;;;;;;;2.17;2.08;;;;;;;6.81;70.38;100368.25;5040008;28;20048;-78
2021/09/17 04:54:03;;;;;;;2.08;1.90;;;;;;;6.86;70.93;100375.91;5047577;28;20084;-76
2021/09/17 04:56:49;;;;;;;1.88;1.77;;;;;;;6.87;70.08;100375.00;5049748;28;20079;-77
2021/09/17 04:59:41;;;;;;;1.70;1.70;;;;;;;7.02;69.91;100371.91;5035387;28;20056;-77
2021/09/17 05:02:27;;;;;;;2.33;2.13;;;;;;;7.36;68.82;100381.22;5035675;28;20053;-76
2021/09/17 05:05:12;;;;;;;2.17;2.08;;;;;;;7.20;69.20;100373.91;5034614;28;20148;-74
2021/09/17 05:07:59;;;;;;;1.13;1.13;;;;;;;7.49;68.35;100369.50;5044801;28;20425;-75
2021/09/17 05:10:47;;;;;;;2.00;1.90;;;;;;;7.27;68.96;100362.41;5017377;28;20045;-75
2021/09/17 05:13:33;;;;;;;2.17;2.08;;;;;;;7.28;69.17;100369.31;5047506;28;20045;-73
2021/09/17 05:16:32;;;;;;;2.85;2.65;;;;;;;7.22;67.95;100377.31;5032825;28;20060;-77
2021/09/17 05:19:18;;;;;;;1.77;1.67;;;;;;;7.24;68.04;100382.44;5048180;28;20224;-73
2021/09/17 05:22:04;;;;;;;1.98;1.88;;;;;;;7.19;67.06;100377.41;5065866;28;20051;-74
2021/09/17 05:24:50;;;;;;;1.30;1.20;;;;;;;7.15;66.90;100377.56;5068507;28;20087;-74
2021/09/17 05:27:36;;;;;;;2.30;2.20;;;;;;;7.12;66.56;100381.09;5075303;28;20051;-76
2021/09/17 05:30:26;;;;;;;1.98;1.88;;;;;;;7.08;66.28;100376.06;5074106;28;20622;-74
2021/09/17 05:33:12;;;;;;;2.75;2.40;;;;;;;7.04;66.82;100370.09;5067377;28;20105;-74
2021/09/17 05:36:38;;;;;;;1.88;1.77;;;;;;;6.98;65.15;100351.28;5072313;28;20044;-79
2021/09/17 05:40:09;;;;;;;;;;;;;;;;;;;;;
2021/09/17 05:43:43;;;;;;;1.35;1.35;;;;;;;7.19;65.59;100359.25;5040880;28;20083;-77
2021/09/17 05:46:59;;;;;;;1.77;1.67;;;;;;;7.24;65.93;100359.94;5004911;28;20699;-73
2021/09/17 05:49:26;;;;;;;1.35;1.35;;;;;;;7.26;65.72;100354.69;5055214;28;20665;-74
2021/09/17 05:51:52;;;;;;;1.63;1.52;;;;;;;7.17;65.12;100355.81;5052851;28;20058;-73
2021/09/17 05:54:43;;;;;;;1.02;1.02;;;;;;;7.22;65.89;100358.28;5035458;28;20432;-77
2021/09/17 05:57:54;;;;;;;1.77;1.77;;;;;;;7.29;63.91;100358.03;4974897;28;20053;-74
2021/09/17 06:00:50;;;;;;;2.30;2.08;;;;;;;7.26;63.83;100358.13;5004685;28;20683;-74
2021/09/17 06:04:19;;;;;;;1.67;1.58;;;;;;;7.33;63.13;100351.81;5002523;28;20140;-71
2021/09/17 06:07:39;;;;;;;1.42;1.42;;;;;;;7.32;63.26;100347.56;4984214;28;20046;-71
2021/09/17 06:10:25;;;;;;;1.75;1.65;;;;;;;7.25;63.75;100351.25;4993818;28;20074;-71
2021/09/17 06:13:29;;;;;;;1.23;1.23;;;;;;;7.28;63.34;100348.53;4993661;28;20191;-72
2021/09/17 06:16:27;;;;;;;1.20;1.20;;;;;;;7.16;60.85;100333.38;4982563;28;20049;-74
2021/09/17 06:19:38;;;;;;;1.50;1.40;;;;;;;7.08;62.96;100330.19;4985856;28;20062;-74
2021/09/17 06:22:47;;;;;;;1.60;1.60;;;;;;;7.14;62.68;100344.69;4957442;28;20051;-72
2021/09/17 06:29:09;;;;;;;1.60;1.52;;;;;;;7.49;62.62;100353.91;4932586;29;20056;-75
2021/09/17 06:31:54;;;;;;;2.80;1.55;;;;;;;7.49;62.67;100361.72;5036714;28;20049;-72
2021/09/17 06:34:41;;;;;;;1.02;1.02;;;;;;;7.45;63.17;100365.31;5030740;28;20181;-74
2021/09/17 06:42:19;;;;;;;1.73;1.73;;;;;;;7.53;62.42;100373.66;5015910;28;20424;-71
2021/09/17 06:53:16;;;;;;;0.75;0.75;;;;;;;7.60;61.74;100354.38;5031762;28;20497;-75
2021/09/17 06:55:51;;;;;;;0.73;0.73;;;;;;;7.62;62.72;100366.44;5032009;28;20060;-72
2021/09/17 06:58:17;;;;;;;1.33;1.33;;;;;;;7.84;62.29;100369.13;5048457;28;20052;-72
2021/09/17 07:00:44;;;;;;;0.90;0.90;;;;;;;7.95;62.68;100359.19;5023603;28;20048;-73
2021/09/17 07:03:13;;;;;;;2.13;1.92;;;;;;;7.84;62.95;100369.97;5031024;28;20049;-74
2021/09/17 07:05:43;;;;;;;1.60;1.60;;;;;;;7.74;63.75;100367.75;5032165;28;20077;-75
2021/09/17 07:08:39;;;;;;;1.73;1.63;;;;;;;7.73;63.18;100372.09;4997606;28;20050;-74
2021/09/17 07:11:39;;;;;;;0.95;0.95;;;;;;;7.79;63.70;100365.81;5010583;28;20049;-78
2021/09/17 07:14:25;;;;;;;1.38;1.30;;;;;;;7.52;64.04;100372.00;5012981;28;20639;-73
2021/09/17 07:17:11;;;;;;;1.75;1.70;;;;;;;7.48;64.35;100363.47;4996284;28;20046;-74
2021/09/17 07:19:57;;;;;;;0.88;0.88;;;;;;;7.54;64.08;100365.84;4998840;28;20433;-73
2021/09/17 07:22:43;;;;;;;1.08;1.08;;;;;;;7.72;62.54;100370.38;5029438;28;20148;-72
2021/09/17 07:25:30;;;;;;;0.77;0.77;;;;;;;7.67;62.99;100361.06;5031311;28;20580;-71
2021/09/17 07:28:16;;;;;;;1.90;1.80;;;;;;;7.80;63.27;100377.94;5037189;28;20683;-71
2021/09/17 07:31:01;;;;;;;13.07;1.92;;;;;;;7.53;61.20;100369.34;5028099;28;20048;-70
2021/09/17 07:33:47;;;;;;;1.45;1.45;;;;;;;7.56;60.11;100363.22;5030240;28;20088;-71
2021/09/17 07:36:33;;;;;;;1.10;1.10;;;;;;;7.55;61.36;100372.75;5030132;28;20056;-71
2021/09/17 07:39:19;;;;;;;1.08;1.08;;;;;;;7.62;58.31;100369.03;5027549;28;20089;-70
2021/09/17 07:42:06;;;;;;;1.40;1.30;;;;;;;7.50;59.25;100363.38;5011326;28;20176;-71
2021/09/17 07:44:52;;;;;;;1.02;1.02;;;;;;;7.49;58.73;100367.75;5010777;28;20038;-72
2021/09/17 07:47:38;;;;;;;1.95;1.88;;;;;;;7.55;58.30;100366.69;5010373;28;20049;-72
2021/09/17 07:50:24;;;;;;;1.13;1.10;;;;;;;7.56;58.65;100371.00;5010100;28;20065;-72
2021/09/17 07:53:11;;;;;;;2.47;1.25;;;;;;;7.54;58.48;100370.19;5010694;28;20425;-71
2021/09/17 07:55:57;;;;;;;1.30;1.30;;;;;;;7.60;59.09;100368.22;5010162;28;20058;-71
2021/09/17 07:58:43;;;;;;;1.02;1.02;;;;;;;7.70;58.93;100368.75;5007359;28;20140;-71
2021/09/17 08:01:35;;;;;;;1.15;1.15;;;;;;;7.77;58.62;100378.03;4999090;28;20072;-72
2021/09/17 08:04:21;;;;;;;1.65;1.65;;;;;;;7.93;58.62;100378.34;5015451;28;20128;-73
2021/09/17 08:07:07;;;;;;;1.10;1.10;;;;;;;8.05;57.23;100381.34;5027728;28;20042;-70
2021/09/17 08:09:53;;;;;;;1.00;1.00;;;;;;;8.03;57.19;100370.16;5035533;28;20049;-73
2021/09/17 08:12:45;;;;;;;1.08;1.08;;;;;;;7.83;57.40;100377.81;5001003;28;20228;-71
2021/09/17 08:15:31;;;;;;;1.80;1.70;;;;;;;7.98;57.00;100377.28;5000540;28;20634;-73
2021/09/17 08:18:17;;;;;;;1.35;1.35;;;;;;;7.81;57.31;100379.63;5004209;28;20149;-70
2021/09/17 08:21:03;;;;;;;0.98;0.98;;;;;;;7.98;56.30;100372.09;5042311;28;20040;-73
2021/09/17 08:24:03;;;;;;;1.48;1.48;;;;;;;8.09;57.21;100375.13;5060554;28;20542;-73
2021/09/17 08:26:50;;;;;;;0.93;0.93;;;;;;;8.22;56.23;100371.19;5049239;28;20049;-73
2021/09/17 08:29:41;;;;;;;1.25;1.25;;;;;;;8.12;56.54;100385.41;5046716;28;20088;-71
2021/09/17 08:32:27;;;;;;;1.48;1.48;;;;;;;8.32;56.84;100385.56;5046936;28;20045;-72
2021/09/17 08:35:13;;;;;;;1.15;1.15;;;;;;;8.07;56.23;100376.94;5042796;28;20135;-70
2021/09/17 08:38:07;;;;;;;1.23;1.23;;;;;;;8.08;56.97;100376.03;5048902;28;20068;-71
2021/09/17 08:40:57;;;;;;;1.80;1.35;;;;;;;8.27;55.76;100373.63;5029173;28;20592;-70
2021/09/17 08:43:43;;;;;;;1.65;1.45;;;;;;;8.20;56.79;100366.94;5029283;28;20106;-72
2021/09/17 08:46:30;;;;;;;0.90;0.90;;;;;;;8.21;57.61;100371.25;5028750;28;20111;-70
2021/09/17 08:49:17;;;;;;;5.03;1.92;;;;;;;8.17;54.22;100372.25;5031092;28;20532;-73
2021/09/17 08:52:06;;;;;;;2.13;2.03;;;;;;;8.03;55.85;100364.09;5047256;28;20132;-73
2021/09/17 08:55:07;;;;;;;1.10;1.10;;;;;;;8.21;56.33;100374.69;5029104;28;20060;-71
2021/09/17 08:57:53;;;;;;;0.82;0.82;;;;;;;8.22;55.55;100360.78;5039297;28;20641;-72
2021/09/17 09:00:43;;;;;;;0.90;0.90;;;;;;;8.08;53.82;100373.44;5028614;28;20073;-73
2021/09/17 09:03:35;;;;;;;1.60;1.60;;;;;;;8.27;55.39;100364.06;5041058;28;20061;-70
2021/09/17 09:06:21;;;;;;;1.95;1.85;;;;;;;8.30;54.55;100363.13;5048202;28;20045;-71
2021/09/17 09:09:36;;;;;;;0.82;0.82;;;;;;;8.49;53.37;100352.88;5048932;28;20053;-72
2021/09/17 09:12:28;;;;;;;1.25;1.25;;;;;;;8.21;54.40;100355.66;5046370;28;20052;-69
2021/09/17 09:15:15;;;;;;;1.23;1.23;;;;;;;8.50;55.18;100362.38;5068583;28;20080;-71
2021/09/17 09:18:04;;;;;;;2.08;2.00;;;;;;;8.63;53.26;100358.41;5068627;28;20405;-72
2021/09/17 09:21:08;;;;;;;1.73;1.67;;;;;;;8.58;53.31;100357.72;5061589;28;20102;-71
2021/09/17 09:24:23;;;;;;;1.15;1.15;;;;;;;8.73;50.96;100362.34;5021010;28;20136;-71
2021/09/17 09:27:20;;;;;;;1.25;1.25;;;;;;;8.94;49.56;100353.66;5044036;28;20080;-73
2021/09/17 09:30:30;;;;;;;1.95;1.73;;;;;;;9.01;49.59;100357.72;5047379;28;20049;-72
2021/09/17 09:33:29;;;;;;;1.23;1.13;;;;;;;8.91;47.79;100351.19;5047298;28;20056;-72
2021/09/17 09:36:24;;;;;;;2.05;1.30;;;;;;;8.94;47.49;100351.06;5029048;28;20088;-71
2021/09/17 09:39:10;;;;;;;1.95;1.85;;;;;;;9.00;47.81;100348.22;5022341;28;20135;-72
2021/09/17 09:41:59;;;;;;;1.40;1.30;;;;;;;8.87;48.08;100350.47;4981079;28;20199;-74
2021/09/17 09:45:08;;;;;;;2.33;2.13;;;;;;;8.69;48.29;100360.75;4981431;28;20065;-73
2021/09/17 09:47:57;;;;;;;1.92;1.83;;;;;;;8.61;48.80;100360.19;5007399;28;20050;-71
2021/09/17 09:50:43;;;;;;;2.05;1.95;;;;;;;8.69;48.71;100353.81;4993824;28;20046;-72
2021/09/17 09:53:29;;;;;;;1.75;1.65;;;;;;;8.57;48.99;100356.91;5036951;28;20512;-75
2021/09/17 09:56:27;;;;;;;1.83;1.73;;;;;;;8.47;49.62;100339.09;5003723;28;20058;-76
2021/09/17 09:59:37;;;;;;;1.65;1.65;;;;;;;8.61;50.82;100344.59;5028476;28;20129;-73
2021/09/17 10:02:30;;;;;;;1.95;1.30;;;;;;;8.64;49.79;100362.69;4999897;28;20044;-72
2021/09/17 10:05:25;;;;;;;2.15;1.88;;;;;;;8.87;50.43;100366.09;5012003;28;20042;-73
2021/09/17 10:08:12;;;;;;;0.80;0.80;;;;;;;8.68;50.56;100369.47;4988435;28;20053;-72
2021/09/17 10:11:01;;;;;;;1.15;1.15;;;;;;;8.44;50.96;100370.44;5032939;28;20060;-74
2021/09/17 10:13:54;;;;;;;2.05;1.90;;;;;;;8.62;49.96;100374.91;5027317;28;20079;-73
2021/09/17 10:16:45;;;;;;;0.88;0.88;;;;;;;8.72;51.25;100377.09;5028881;28;20073;-74
2021/09/17 10:19:43;;;;;;;2.78;1.98;;;;;;;8.74;50.90;100377.03;5001210;28;20045;-75
2021/09/17 10:22:44;;;;;;;1.60;1.52;;;;;;;8.31;52.04;100344.84;5014905;28;20050;-75
2021/09/17 10:25:35;;;;;;;2.05;1.95;;;;;;;8.50;51.64;100384.06;5012556;28;20045;-72
2021/09/17 10:28:25;;;;;;;4.57;1.45;;;;;;;8.45;52.65;100367.75;5023101;28;20091;-74
2021/09/17 10:31:16;;;;;;;1.15;1.15;;;;;;;8.45;51.12;100352.13;5021986;28;20112;-74
2021/09/17 10:34:45;;;;;;;0.98;0.98;;;;;;;8.59;51.80;100385.44;5009864;28;20057;-73
2021/09/17 10:37:56;;;;;;;4.25;1.75;;;;;;;8.59;50.66;100375.88;5009716;28;20053;-74
2021/09/17 10:41:07;;;;;;;1.10;1.10;;;;;;;8.73;50.40;100370.16;5028953;28;20053;-75
2021/09/17 10:44:01;;;;;;;23.75;1.58;;;;;;;8.60;50.22;100345.50;5028889;28;20058;-74
2021/09/17 10:47:15;;;;;;;2.22;1.60;;;;;;;8.74;49.64;100375.28;5028841;28;20536;-75
2021/09/17 10:50:11;;;;;;;1.20;1.08;;;;;;;8.66;51.01;100371.28;5029997;28;20132;-74
2021/09/17 10:53:08;;;;;;;1.00;1.00;;;;;;;8.93;50.37;100375.44;5038200;28;20132;-73
2021/09/17 10:56:02;;;;;;;1.40;1.40;;;;;;;8.81;50.39;100371.53;5031447;28;20767;-72
2021/09/17 10:59:08;;;;;;;1.13;1.13;;;;;;;8.91;47.87;100374.63;5050410;28;20139;-74
2021/09/17 11:02:00;;;;;;;0.88;0.88;;;;;;;8.85;48.04;100380.94;5049465;28;20041;-74
2021/09/17 11:04:54;;;;;;;1.30;1.08;;;;;;;8.85;48.74;100386.13;5032122;28;20531;-74
2021/09/17 11:07:50;;;;;;;1.67;1.63;;;;;;;8.74;47.77;100356.22;5031631;28;20052;-74
2021/09/17 11:10:42;;;;;;;1.00;1.00;;;;;;;8.96;49.01;100375.31;5030942;28;20179;-73
2021/09/17 11:13:32;;;;;;;1.40;1.38;;;;;;;9.01;48.41;100378.56;5018654;28;20056;-73
2021/09/17 11:16:37;;;;;;;8.98;1.30;;;;;;;8.89;48.68;100379.06;5031124;28;20565;-74
2021/09/17 11:19:25;;;;;;;1.77;1.73;;;;;;;9.10;48.06;100370.38;5019896;28;20049;-72
2021/09/17 11:22:15;;;;;;;1.02;1.02;;;;;;;9.24;47.97;100367.22;5049750;28;20419;-72
2021/09/17 11:25:08;;;;;;;1.07;1.03;;;;;;;9.07;47.99;100362.69;5036141;28;20049;-71
2021/09/17 11:27:56;;;;;;;1.05;1.05;;;;;;;8.94;49.53;100358.88;5050522;28;20049;-71
2021/09/17 11:30:52;;;;;;;1.35;1.35;;;;;;;9.12;49.95;100365.97;5050219;28;20125;-73
2021/09/17 11:33:53;;;;;;;1.23;1.23;;;;;;;9.07;49.26;100378.31;5049186;28;20527;-74
2021/09/17 11:36:57;;;;;;;1.05;1.05;;;;;;;9.06;49.65;100366.22;5065273;28;20578;-71
2021/09/17 11:39:43;;;;;;;5.90;1.10;;;;;;;8.90;49.82;100370.31;5037935;28;20095;-71
2021/09/17 11:42:29;;;;;;;2.35;1.63;;;;;;;8.71;50.33;100379.75;5064288;28;20127;-71
2021/09/17 11:45:17;;;;;;;2.47;1.65;;;;;;;8.65;52.35;100374.78;5050067;28;20558;-72
2021/09/17 11:48:03;;;;;;;3.33;2.10;;;;;;;8.30;54.52;100379.59;5050008;28;20045;-72
2021/09/17 11:50:50;;;;;;;0.93;0.93;;;;;;;8.25;55.83;100397.06;5049311;28;20550;-71
2021/09/17 11:53:36;;;;;;;1.65;1.55;;;;;;;8.14;55.86;100388.84;5048977;28;20450;-72
2021/09/17 11:56:22;;;;;;;3.17;1.73;;;;;;;8.24;55.96;100384.13;5043239;28;20053;-72
2021/09/17 11:59:08;;;;;;;1.05;1.02;;;;;;;8.19;55.84;100397.31;5048342;28;20606;-72
2021/09/17 12:02:32;;;;;;;1.40;1.30;;;;;;;8.59;56.32;100390.66;5046826;28;20049;-72
2021/09/17 12:05:24;;;;;;;1.00;1.00;;;;;;;8.55;55.57;100409.88;5008040;28;20532;-71
2021/09/17 12:08:25;;;;;;;1.13;1.13;;;;;;;8.61;54.97;100394.88;4997624;28;20140;-71
2021/09/17 12:11:17;;;;;;;2.38;1.65;;;;;;;8.82;54.72;100395.81;5042886;28;20527;-72
2021/09/17 12:14:04;;;;;;;1.30;1.25;;;;;;;9.07;54.19;100390.47;5032926;28;20127;-71
2021/09/17 12:16:51;;;;;;;2.03;1.92;;;;;;;8.79;55.62;100393.34;5048840;28;20052;-70
2021/09/17 12:19:56;;;;;;;0.70;0.70;;;;;;;8.82;54.98;100378.44;5049504;28;20061;-70
2021/09/17 12:23:08;;;;;;;2.42;2.15;;;;;;;8.93;53.71;100370.22;5032946;28;20059;-72
2021/09/17 12:26:24;;;;;;;1.05;1.05;;;;;;;8.81;52.58;100375.91;5050340;28;20045;-72
2021/09/17 12:29:10;;;;;;;1.63;1.58;;;;;;;9.01;52.17;100377.72;5029577;28;20053;-71
2021/09/17 12:32:21;;;;;;;1.23;1.23;;;;;;;8.98;52.96;100383.03;5028703;28;20103;-72
2021/09/17 12:35:07;;;;;;;1.05;1.05;;;;;;;8.93;52.51;100390.19;5046746;28;20055;-70
2021/09/17 12:37:54;;;;;;;2.33;2.15;;;;;;;8.94;52.22;100384.91;5050344;28;20581;-71
2021/09/17 12:40:44;;;;;;;4.78;1.75;;;;;;;8.64;51.72;100383.50;5047623;28;20071;-71
2021/09/17 12:43:31;;;;;;;1.45;1.40;;;;;;;8.60;51.67;100392.34;5034168;28;20515;-71
2021/09/17 12:46:16;;;;;;;2.05;1.17;;;;;;;8.79;51.87;100391.59;5048412;28;20080;-71
2021/09/17 12:49:02;;;;;;;1.30;1.30;;;;;;;8.85;51.37;100390.50;5048845;28;20049;-72
2021/09/17 12:51:55;;;;;;;1.35;1.25;;;;;;;8.75;52.61;100391.75;5048847;28;20061;-72
2021/09/17 12:54:41;;;;;;;1.23;1.20;;;;;;;8.75;51.78;100386.53;5048669;28;20091;-71
2021/09/17 12:58:03;;;;;;;1.05;1.05;;;;;;;8.67;52.16;100388.63;5048975;28;20044;-72
2021/09/17 13:00:50;;;;;;;1.77;1.63;;;;;;;8.52;52.86;100397.00;5048468;28;20128;-72
2021/09/17 13:03:36;;;;;;;1.55;1.48;;;;;;;8.55;53.49;100402.06;5047643;28;20057;-72
2021/09/17 13:06:23;;;;;;;1.15;1.15;;;;;;;8.68;52.38;100405.91;5048660;28;20049;-70
2021/09/17 13:09:09;;;;;;;1.67;1.65;;;;;;;8.36;52.94;100399.31;5059427;28;20474;-71
2021/09/17 13:11:56;;;;;;;1.98;1.77;;;;;;;8.39;53.26;100399.22;5047539;28;20076;-70
2021/09/17 13:14:45;;;;;;;2.13;2.03;;;;;;;8.46;52.14;100400.69;5049674;28;20621;-70
2021/09/17 13:17:31;;;;;;;2.00;1.90;;;;;;;8.40;53.37;100400.06;5048516;28;20131;-71
2021/09/17 13:20:17;;;;;;;1.52;1.42;;;;;;;8.38;52.70;100397.50;5047345;28;20638;-71
2021/09/17 13:23:03;;;;;;;1.30;1.30;;;;;;;8.33;52.24;100404.63;5048611;28;20060;-69
2021/09/17 13:25:49;;;;;;;1.23;1.23;;;;;;;8.44;52.38;100404.25;5047437;28;20057;-71
2021/09/17 13:28:35;;;;;;;2.08;1.98;;;;;;;8.45;52.25;100400.72;5047817;28;20092;-72
2021/09/17 13:31:21;;;;;;;1.20;1.20;;;;;;;8.52;52.02;100407.41;5033633;28;20140;-71
2021/09/17 13:34:07;;;;;;;14.13;1.38;;;;;;;8.63;51.84;100407.84;5048223;28;20214;-72
2021/09/17 13:36:55;;;;;;;1.08;1.08;;;;;;;8.72;51.58;100402.28;5048068;28;20049;-71